sensor_id;sensor_type;location;lat;lon;timestamp;temperature;humidity
831;DHT22;397;50.564;7.272;2023-03-11T00:00:26;3.50;99.90
831;DHT22;397;50.564;7.272;2023-03-11T00:02:57;3.50;99.90
831;DHT22;397;50.564;7.272;2023-03-11T00:05:31;3.20;99.90
831;DHT22;397;50.564;7.272;2023-03-11T00:07:59;3.40;99.90
831;DHT22;397;50.564;7.272;2023-03-11T00:10:37;3.50;99.90
831;DHT22;397;50.564;7.272;2023-03-11T00:13:01;3.60;99.90
831;DHT22;397;50.564;7.272;2023-03-11T00:15:29;3.50;99.90
831;DHT22;397;50.564;7.272;2023-03-11T00:17:57;3.50;99.90
831;DHT22;397;50.564;7.272;2023-03-11T00:20:27;3.50;99.90
831;DHT22;397;50.564;7.272;2023-03-11T00:22:56;3.40;99.90
831;DHT22;397;50.564;7.272;2023-03-11T00:25:25;3.50;99.90
831;DHT22;397;50.564;7.272;2023-03-11T00:27:53;3.60;99.90
831;DHT22;397;50.564;7.272;2023-03-11T00:30:21;3.60;99.90
831;DHT22;397;50.564;7.272;2023-03-11T00:32:51;3.60;99.90
831;DHT22;397;50.564;7.272;2023-03-11T00:35:22;3.50;99.90
831;DHT22;397;50.564;7.272;2023-03-11T00:37:52;3.40;99.90
831;DHT22;397;50.564;7.272;2023-03-11T00:40:20;3.40;99.90
831;DHT22;397;50.564;7.272;2023-03-11T00:42:48;3.40;99.90
831;DHT22;397;50.564;7.272;2023-03-11T00:45:16;3.60;99.90
831;DHT22;397;50.564;7.272;2023-03-11T00:47:44;3.60;99.90
831;DHT22;397;50.564;7.272;2023-03-11T00:50:18;3.60;99.90
831;DHT22;397;50.564;7.272;2023-03-11T00:52:46;3.60;99.90
831;DHT22;397;50.564;7.272;2023-03-11T00:55:17;3.50;99.90
831;DHT22;397;50.564;7.272;2023-03-11T00:57:45;3.50;99.90
831;DHT22;397;50.564;7.272;2023-03-11T01:00:15;3.50;99.90
831;DHT22;397;50.564;7.272;2023-03-11T01:02:43;3.50;99.90
831;DHT22;397;50.564;7.272;2023-03-11T01:05:10;3.50;99.90
831;DHT22;397;50.564;7.272;2023-03-11T01:07:38;3.40;99.90
831;DHT22;397;50.564;7.272;2023-03-11T01:10:07;3.60;99.90
831;DHT22;397;50.564;7.272;2023-03-11T01:12:35;3.60;99.90
831;DHT22;397;50.564;7.272;2023-03-11T01:15:03;3.50;99.90
831;DHT22;397;50.564;7.272;2023-03-11T01:17:31;3.50;99.90
831;DHT22;397;50.564;7.272;2023-03-11T01:19:58;3.40;99.90
831;DHT22;397;50.564;7.272;2023-03-11T01:22:26;3.40;99.90
831;DHT22;397;50.564;7.272;2023-03-11T01:24:53;3.50;99.90
831;DHT22;397;50.564;7.272;2023-03-11T01:27:21;3.50;99.90
831;DHT22;397;50.564;7.272;2023-03-11T01:29:48;3.50;99.90
831;DHT22;397;50.564;7.272;2023-03-11T01:32:16;3.40;99.90
831;DHT22;397;50.564;7.272;2023-03-11T01:34:43;3.40;99.90
831;DHT22;397;50.564;7.272;2023-03-11T01:37:11;3.20;99.90
831;DHT22;397;50.564;7.272;2023-03-11T01:39:38;3.30;99.90
831;DHT22;397;50.564;7.272;2023-03-11T01:42:06;3.30;99.90
831;DHT22;397;50.564;7.272;2023-03-11T01:44:34;3.40;99.90
831;DHT22;397;50.564;7.272;2023-03-11T01:49:32;3.30;99.90
831;DHT22;397;50.564;7.272;2023-03-11T01:52:02;3.50;99.90
831;DHT22;397;50.564;7.272;2023-03-11T01:54:34;3.40;99.90
831;DHT22;397;50.564;7.272;2023-03-11T01:57:04;3.10;99.90
831;DHT22;397;50.564;7.272;2023-03-11T01:59:38;3.30;99.90
831;DHT22;397;50.564;7.272;2023-03-11T02:02:24;3.40;99.90
831;DHT22;397;50.564;7.272;2023-03-11T02:04:51;3.40;99.90
831;DHT22;397;50.564;7.272;2023-03-11T02:07:20;3.40;99.90
831;DHT22;397;50.564;7.272;2023-03-11T02:09:47;3.30;99.90
831;DHT22;397;50.564;7.272;2023-03-11T02:12:15;3.30;99.90
831;DHT22;397;50.564;7.272;2023-03-11T02:14:45;3.40;99.90
831;DHT22;397;50.564;7.272;2023-03-11T02:17:13;3.40;99.90
831;DHT22;397;50.564;7.272;2023-03-11T02:22:32;3.50;99.90
831;DHT22;397;50.564;7.272;2023-03-11T02:25:07;3.40;99.90
831;DHT22;397;50.564;7.272;2023-03-11T02:27:37;3.40;99.90
831;DHT22;397;50.564;7.272;2023-03-11T02:30:06;3.50;99.90
831;DHT22;397;50.564;7.272;2023-03-11T02:32:34;3.50;99.90
831;DHT22;397;50.564;7.272;2023-03-11T02:35:03;3.50;99.90
831;DHT22;397;50.564;7.272;2023-03-11T02:37:31;3.30;99.90
831;DHT22;397;50.564;7.272;2023-03-11T02:42:56;3.20;99.90
831;DHT22;397;50.564;7.272;2023-03-11T02:45:25;3.20;99.90
831;DHT22;397;50.564;7.272;2023-03-11T02:47:56;3.30;99.90
831;DHT22;397;50.564;7.272;2023-03-11T02:50:25;3.30;99.90
831;DHT22;397;50.564;7.272;2023-03-11T02:52:54;3.40;99.90
831;DHT22;397;50.564;7.272;2023-03-11T02:55:22;3.40;99.90
831;DHT22;397;50.564;7.272;2023-03-11T02:57:49;3.30;99.90
831;DHT22;397;50.564;7.272;2023-03-11T03:00:17;3.30;99.90
831;DHT22;397;50.564;7.272;2023-03-11T03:02:46;3.40;99.90
831;DHT22;397;50.564;7.272;2023-03-11T03:05:15;3.40;99.90
831;DHT22;397;50.564;7.272;2023-03-11T03:07:42;3.50;99.90
831;DHT22;397;50.564;7.272;2023-03-11T03:10:11;3.40;99.90
831;DHT22;397;50.564;7.272;2023-03-11T03:12:39;3.40;99.90
831;DHT22;397;50.564;7.272;2023-03-11T03:15:07;3.40;99.90
831;DHT22;397;50.564;7.272;2023-03-11T03:17:35;3.40;99.90
831;DHT22;397;50.564;7.272;2023-03-11T03:20:04;3.40;99.90
831;DHT22;397;50.564;7.272;2023-03-11T03:22:33;3.30;99.90
831;DHT22;397;50.564;7.272;2023-03-11T03:25:00;3.30;99.90
831;DHT22;397;50.564;7.272;2023-03-11T03:27:28;3.20;99.90
831;DHT22;397;50.564;7.272;2023-03-11T03:29:56;3.20;99.90
831;DHT22;397;50.564;7.272;2023-03-11T03:32:23;3.00;99.90
831;DHT22;397;50.564;7.272;2023-03-11T03:34:50;3.10;99.90
831;DHT22;397;50.564;7.272;2023-03-11T03:37:20;3.30;99.90
831;DHT22;397;50.564;7.272;2023-03-11T03:39:47;3.20;99.90
831;DHT22;397;50.564;7.272;2023-03-11T03:42:15;3.20;99.90
831;DHT22;397;50.564;7.272;2023-03-11T03:44:42;3.20;99.90
831;DHT22;397;50.564;7.272;2023-03-11T03:47:10;3.20;99.90
831;DHT22;397;50.564;7.272;2023-03-11T03:49:38;3.20;99.90
831;DHT22;397;50.564;7.272;2023-03-11T03:52:06;3.10;99.90
831;DHT22;397;50.564;7.272;2023-03-11T03:54:34;3.20;99.90
831;DHT22;397;50.564;7.272;2023-03-11T03:57:01;3.10;99.90
831;DHT22;397;50.564;7.272;2023-03-11T03:59:29;3.10;99.90
831;DHT22;397;50.564;7.272;2023-03-11T04:01:57;3.00;99.90
831;DHT22;397;50.564;7.272;2023-03-11T04:04:24;2.90;99.90
831;DHT22;397;50.564;7.272;2023-03-11T04:06:52;3.00;99.90
831;DHT22;397;50.564;7.272;2023-03-11T04:09:20;3.00;99.90
831;DHT22;397;50.564;7.272;2023-03-11T04:11:47;2.80;99.90
831;DHT22;397;50.564;7.272;2023-03-11T04:14:15;2.80;99.90
831;DHT22;397;50.564;7.272;2023-03-11T04:16:42;2.80;99.90
831;DHT22;397;50.564;7.272;2023-03-11T04:19:10;2.90;99.90
831;DHT22;397;50.564;7.272;2023-03-11T04:21:38;2.80;99.90
831;DHT22;397;50.564;7.272;2023-03-11T04:24:05;2.70;99.90
831;DHT22;397;50.564;7.272;2023-03-11T04:26:33;2.60;99.90
831;DHT22;397;50.564;7.272;2023-03-11T04:29:00;2.60;99.90
831;DHT22;397;50.564;7.272;2023-03-11T04:31:28;2.60;99.90
831;DHT22;397;50.564;7.272;2023-03-11T04:33:55;2.60;99.90
831;DHT22;397;50.564;7.272;2023-03-11T04:36:23;2.50;99.90
831;DHT22;397;50.564;7.272;2023-03-11T04:38:50;2.40;99.90
831;DHT22;397;50.564;7.272;2023-03-11T04:41:18;2.40;99.90
831;DHT22;397;50.564;7.272;2023-03-11T04:43:45;2.40;99.90
831;DHT22;397;50.564;7.272;2023-03-11T04:46:13;2.20;99.90
831;DHT22;397;50.564;7.272;2023-03-11T04:48:41;2.20;99.90
831;DHT22;397;50.564;7.272;2023-03-11T04:51:08;2.20;99.90
831;DHT22;397;50.564;7.272;2023-03-11T04:53:36;2.10;99.90
831;DHT22;397;50.564;7.272;2023-03-11T04:56:04;2.10;99.90
831;DHT22;397;50.564;7.272;2023-03-11T04:58:32;2.10;99.90
831;DHT22;397;50.564;7.272;2023-03-11T05:00:59;2.10;99.90
831;DHT22;397;50.564;7.272;2023-03-11T05:03:27;2.00;99.90
831;DHT22;397;50.564;7.272;2023-03-11T05:05:54;1.90;99.90
831;DHT22;397;50.564;7.272;2023-03-11T05:08:26;1.90;99.90
831;DHT22;397;50.564;7.272;2023-03-11T05:10:53;1.90;99.90
831;DHT22;397;50.564;7.272;2023-03-11T05:13:21;1.90;99.90
831;DHT22;397;50.564;7.272;2023-03-11T05:15:49;1.80;99.90
831;DHT22;397;50.564;7.272;2023-03-11T05:18:17;1.80;99.90
831;DHT22;397;50.564;7.272;2023-03-11T05:20:44;1.80;99.90
831;DHT22;397;50.564;7.272;2023-03-11T05:23:11;1.70;99.90
831;DHT22;397;50.564;7.272;2023-03-11T05:25:39;1.70;99.90
831;DHT22;397;50.564;7.272;2023-03-11T05:28:06;1.70;99.90
831;DHT22;397;50.564;7.272;2023-03-11T05:30:34;1.60;99.90
831;DHT22;397;50.564;7.272;2023-03-11T05:33:02;1.70;99.90
831;DHT22;397;50.564;7.272;2023-03-11T05:35:29;1.70;99.90
831;DHT22;397;50.564;7.272;2023-03-11T05:37:57;1.60;99.90
831;DHT22;397;50.564;7.272;2023-03-11T05:40:24;1.60;99.90
831;DHT22;397;50.564;7.272;2023-03-11T05:42:52;1.60;99.90
831;DHT22;397;50.564;7.272;2023-03-11T05:45:19;1.60;99.90
831;DHT22;397;50.564;7.272;2023-03-11T05:47:47;1.60;99.90
831;DHT22;397;50.564;7.272;2023-03-11T05:50:14;1.50;99.90
831;DHT22;397;50.564;7.272;2023-03-11T05:52:42;1.50;99.90
831;DHT22;397;50.564;7.272;2023-03-11T05:55:09;1.50;99.90
831;DHT22;397;50.564;7.272;2023-03-11T05:57:38;1.40;99.90
831;DHT22;397;50.564;7.272;2023-03-11T06:00:09;1.50;99.90
831;DHT22;397;50.564;7.272;2023-03-11T06:02:39;1.50;99.90
831;DHT22;397;50.564;7.272;2023-03-11T06:05:07;1.50;99.90
831;DHT22;397;50.564;7.272;2023-03-11T06:07:35;1.60;99.90
831;DHT22;397;50.564;7.272;2023-03-11T06:10:04;1.50;99.90
831;DHT22;397;50.564;7.272;2023-03-11T06:12:33;1.60;99.90
831;DHT22;397;50.564;7.272;2023-03-11T06:15:01;1.60;99.90
831;DHT22;397;50.564;7.272;2023-03-11T06:17:28;1.60;99.90
831;DHT22;397;50.564;7.272;2023-03-11T06:19:56;1.60;99.90
831;DHT22;397;50.564;7.272;2023-03-11T06:22:23;1.80;99.90
831;DHT22;397;50.564;7.272;2023-03-11T06:24:51;1.90;99.90
831;DHT22;397;50.564;7.272;2023-03-11T06:27:18;1.90;99.90
831;DHT22;397;50.564;7.272;2023-03-11T06:29:46;2.00;99.90
831;DHT22;397;50.564;7.272;2023-03-11T06:32:15;2.10;99.90
831;DHT22;397;50.564;7.272;2023-03-11T06:34:42;2.40;99.90
831;DHT22;397;50.564;7.272;2023-03-11T06:37:10;2.70;99.90
831;DHT22;397;50.564;7.272;2023-03-11T06:39:37;3.10;99.90
831;DHT22;397;50.564;7.272;2023-03-11T06:42:09;3.40;99.90
831;DHT22;397;50.564;7.272;2023-03-11T06:44:37;3.70;99.90
831;DHT22;397;50.564;7.272;2023-03-11T06:47:05;3.90;99.90
831;DHT22;397;50.564;7.272;2023-03-11T06:49:32;4.20;99.90
831;DHT22;397;50.564;7.272;2023-03-11T06:52:00;4.00;99.90
831;DHT22;397;50.564;7.272;2023-03-11T06:54:28;4.30;99.90
831;DHT22;397;50.564;7.272;2023-03-11T06:56:55;4.60;99.90
831;DHT22;397;50.564;7.272;2023-03-11T06:59:22;4.60;99.90
831;DHT22;397;50.564;7.272;2023-03-11T07:01:50;4.50;99.90
831;DHT22;397;50.564;7.272;2023-03-11T07:04:17;4.70;99.90
831;DHT22;397;50.564;7.272;2023-03-11T07:06:45;4.60;99.90
831;DHT22;397;50.564;7.272;2023-03-11T07:09:13;4.30;99.90
831;DHT22;397;50.564;7.272;2023-03-11T07:11:40;4.10;99.90
831;DHT22;397;50.564;7.272;2023-03-11T07:14:08;4.00;99.90
831;DHT22;397;50.564;7.272;2023-03-11T07:16:38;4.20;99.90
831;DHT22;397;50.564;7.272;2023-03-11T07:19:06;4.40;99.90
831;DHT22;397;50.564;7.272;2023-03-11T07:21:33;4.50;99.90
831;DHT22;397;50.564;7.272;2023-03-11T07:24:02;4.30;99.90
831;DHT22;397;50.564;7.272;2023-03-11T07:26:31;4.10;99.90
831;DHT22;397;50.564;7.272;2023-03-11T07:28:59;4.00;99.90
831;DHT22;397;50.564;7.272;2023-03-11T07:31:30;4.40;99.90
831;DHT22;397;50.564;7.272;2023-03-11T07:33:59;4.60;99.90
831;DHT22;397;50.564;7.272;2023-03-11T07:36:27;4.80;99.90
831;DHT22;397;50.564;7.272;2023-03-11T07:38:57;4.60;99.90
831;DHT22;397;50.564;7.272;2023-03-11T07:41:26;4.70;99.90
831;DHT22;397;50.564;7.272;2023-03-11T07:43:54;4.70;99.90
831;DHT22;397;50.564;7.272;2023-03-11T07:46:23;4.50;99.90
831;DHT22;397;50.564;7.272;2023-03-11T07:48:52;4.60;99.90
831;DHT22;397;50.564;7.272;2023-03-11T07:51:22;4.90;99.90
831;DHT22;397;50.564;7.272;2023-03-11T07:53:51;4.80;99.90
831;DHT22;397;50.564;7.272;2023-03-11T07:56:21;4.90;99.90
831;DHT22;397;50.564;7.272;2023-03-11T07:58:49;4.80;99.90
831;DHT22;397;50.564;7.272;2023-03-11T08:01:22;4.90;99.90
831;DHT22;397;50.564;7.272;2023-03-11T08:03:52;5.00;99.90
831;DHT22;397;50.564;7.272;2023-03-11T08:06:26;5.10;99.90
831;DHT22;397;50.564;7.272;2023-03-11T08:08:57;5.20;99.90
831;DHT22;397;50.564;7.272;2023-03-11T08:11:25;5.50;99.90
831;DHT22;397;50.564;7.272;2023-03-11T08:13:53;5.70;99.90
831;DHT22;397;50.564;7.272;2023-03-11T08:16:23;5.80;99.90
831;DHT22;397;50.564;7.272;2023-03-11T08:18:51;5.80;99.90
831;DHT22;397;50.564;7.272;2023-03-11T08:21:22;5.70;99.90
831;DHT22;397;50.564;7.272;2023-03-11T08:23:50;5.50;99.90
831;DHT22;397;50.564;7.272;2023-03-11T08:26:19;5.50;99.90
831;DHT22;397;50.564;7.272;2023-03-11T08:28:47;5.20;99.90
831;DHT22;397;50.564;7.272;2023-03-11T08:31:18;5.50;99.90
831;DHT22;397;50.564;7.272;2023-03-11T08:33:48;5.60;99.90
831;DHT22;397;50.564;7.272;2023-03-11T08:36:16;5.50;99.90
831;DHT22;397;50.564;7.272;2023-03-11T08:38:44;5.30;99.90
831;DHT22;397;50.564;7.272;2023-03-11T08:41:12;5.30;99.90
831;DHT22;397;50.564;7.272;2023-03-11T08:43:40;5.30;99.90
831;DHT22;397;50.564;7.272;2023-03-11T08:46:13;5.50;99.90
831;DHT22;397;50.564;7.272;2023-03-11T08:48:37;5.50;99.90
831;DHT22;397;50.564;7.272;2023-03-11T08:51:09;5.60;99.90
831;DHT22;397;50.564;7.272;2023-03-11T08:53:37;5.70;99.90
831;DHT22;397;50.564;7.272;2023-03-11T08:56:06;6.00;99.90
831;DHT22;397;50.564;7.272;2023-03-11T08:58:34;6.00;99.90
831;DHT22;397;50.564;7.272;2023-03-11T09:01:01;6.20;99.90
831;DHT22;397;50.564;7.272;2023-03-11T09:03:32;6.30;99.90
831;DHT22;397;50.564;7.272;2023-03-11T09:06:03;5.80;99.90
831;DHT22;397;50.564;7.272;2023-03-11T09:08:31;5.50;99.90
831;DHT22;397;50.564;7.272;2023-03-11T09:10:58;6.00;99.90
831;DHT22;397;50.564;7.272;2023-03-11T09:13:26;6.30;99.90
831;DHT22;397;50.564;7.272;2023-03-11T09:15:54;6.20;99.90
831;DHT22;397;50.564;7.272;2023-03-11T09:18:22;5.90;99.90
831;DHT22;397;50.564;7.272;2023-03-11T09:20:50;5.70;99.90
831;DHT22;397;50.564;7.272;2023-03-11T09:23:17;5.40;99.90
831;DHT22;397;50.564;7.272;2023-03-11T09:25:45;5.80;99.90
831;DHT22;397;50.564;7.272;2023-03-11T09:28:12;6.60;99.90
831;DHT22;397;50.564;7.272;2023-03-11T09:30:40;6.30;99.90
831;DHT22;397;50.564;7.272;2023-03-11T09:33:08;6.00;99.90
831;DHT22;397;50.564;7.272;2023-03-11T09:35:37;6.40;99.90
831;DHT22;397;50.564;7.272;2023-03-11T09:38:05;6.50;99.90
831;DHT22;397;50.564;7.272;2023-03-11T09:43:34;5.10;99.90
831;DHT22;397;50.564;7.272;2023-03-11T09:46:33;5.30;99.90
831;DHT22;397;50.564;7.272;2023-03-11T09:49:20;5.50;99.90
831;DHT22;397;50.564;7.272;2023-03-11T09:52:50;5.70;99.90
831;DHT22;397;50.564;7.272;2023-03-11T09:54:25;5.70;99.90
831;DHT22;397;50.564;7.272;2023-03-11T09:56:56;5.30;99.90
831;DHT22;397;50.564;7.272;2023-03-11T09:59:31;5.30;99.90
831;DHT22;397;50.564;7.272;2023-03-11T10:01:59;5.20;99.90
831;DHT22;397;50.564;7.272;2023-03-11T10:04:35;5.00;99.90
831;DHT22;397;50.564;7.272;2023-03-11T10:07:05;5.50;99.90
831;DHT22;397;50.564;7.272;2023-03-11T10:09:42;6.20;99.90
831;DHT22;397;50.564;7.272;2023-03-11T10:15:15;5.70;98.50
831;DHT22;397;50.564;7.272;2023-03-11T10:18:12;6.20;98.20
831;DHT22;397;50.564;7.272;2023-03-11T10:24:02;6.10;96.20
831;DHT22;397;50.564;7.272;2023-03-11T10:26:36;6.10;95.30
831;DHT22;397;50.564;7.272;2023-03-11T10:34:54;5.90;92.00
831;DHT22;397;50.564;7.272;2023-03-11T10:37:32;6.00;91.70
831;DHT22;397;50.564;7.272;2023-03-11T10:40:15;6.20;93.20
831;DHT22;397;50.564;7.272;2023-03-11T10:42:33;6.60;91.20
831;DHT22;397;50.564;7.272;2023-03-11T10:45:01;6.40;91.90
831;DHT22;397;50.564;7.272;2023-03-11T10:47:28;6.20;84.60
831;DHT22;397;50.564;7.272;2023-03-11T10:49:56;6.00;81.80
831;DHT22;397;50.564;7.272;2023-03-11T10:52:23;6.20;86.70
831;DHT22;397;50.564;7.272;2023-03-11T10:55:02;6.00;85.80
831;DHT22;397;50.564;7.272;2023-03-11T10:57:35;6.00;82.10
831;DHT22;397;50.564;7.272;2023-03-11T11:00:05;6.40;86.60
831;DHT22;397;50.564;7.272;2023-03-11T11:02:49;5.80;90.20
831;DHT22;397;50.564;7.272;2023-03-11T11:10:36;6.40;89.20
831;DHT22;397;50.564;7.272;2023-03-11T11:15:54;6.00;84.20
831;DHT22;397;50.564;7.272;2023-03-11T11:18:27;6.40;89.30
831;DHT22;397;50.564;7.272;2023-03-11T11:21:13;6.80;90.60
831;DHT22;397;50.564;7.272;2023-03-11T11:23:45;7.30;87.70
831;DHT22;397;50.564;7.272;2023-03-11T11:26:20;7.00;79.20
831;DHT22;397;50.564;7.272;2023-03-11T11:28:44;6.90;77.70
831;DHT22;397;50.564;7.272;2023-03-11T11:31:25;6.80;80.50
831;DHT22;397;50.564;7.272;2023-03-11T11:33:54;7.20;80.80
831;DHT22;397;50.564;7.272;2023-03-11T11:36:32;7.40;83.30
831;DHT22;397;50.564;7.272;2023-03-11T11:38:55;7.60;78.00
831;DHT22;397;50.564;7.272;2023-03-11T11:41:25;7.80;77.70
831;DHT22;397;50.564;7.272;2023-03-11T11:43:55;8.00;78.30
831;DHT22;397;50.564;7.272;2023-03-11T11:46:36;8.20;78.90
831;DHT22;397;50.564;7.272;2023-03-11T11:51:45;7.80;76.70
831;DHT22;397;50.564;7.272;2023-03-11T11:54:27;8.10;79.50
831;DHT22;397;50.564;7.272;2023-03-11T11:56:54;7.90;74.60
831;DHT22;397;50.564;7.272;2023-03-11T11:59:24;7.70;78.70
831;DHT22;397;50.564;7.272;2023-03-11T12:15:15;7.50;81.10
831;DHT22;397;50.564;7.272;2023-03-11T12:17:44;7.20;78.10
831;DHT22;397;50.564;7.272;2023-03-11T12:20:29;7.30;80.70
831;DHT22;397;50.564;7.272;2023-03-11T12:23:17;7.20;79.50
831;DHT22;397;50.564;7.272;2023-03-11T12:26:10;7.30;79.40
831;DHT22;397;50.564;7.272;2023-03-11T12:28:53;7.60;82.60
831;DHT22;397;50.564;7.272;2023-03-11T12:31:23;7.60;81.80
831;DHT22;397;50.564;7.272;2023-03-11T12:33:57;7.80;82.00
831;DHT22;397;50.564;7.272;2023-03-11T12:36:40;7.60;76.70
831;DHT22;397;50.564;7.272;2023-03-11T12:39:23;7.60;75.00
831;DHT22;397;50.564;7.272;2023-03-11T12:44:39;7.30;77.30
831;DHT22;397;50.564;7.272;2023-03-11T12:49:48;7.00;76.10
831;DHT22;397;50.564;7.272;2023-03-11T12:52:26;7.30;78.50
831;DHT22;397;50.564;7.272;2023-03-11T12:57:49;7.40;78.30
831;DHT22;397;50.564;7.272;2023-03-11T13:05:53;8.10;84.10
831;DHT22;397;50.564;7.272;2023-03-11T13:08:20;8.20;81.10
831;DHT22;397;50.564;7.272;2023-03-11T13:10:51;7.90;78.30
831;DHT22;397;50.564;7.272;2023-03-11T13:13:29;8.00;79.40
831;DHT22;397;50.564;7.272;2023-03-11T13:18:42;7.40;74.40
831;DHT22;397;50.564;7.272;2023-03-11T13:32:20;8.00;75.40
831;DHT22;397;50.564;7.272;2023-03-11T13:35:07;7.80;76.60
831;DHT22;397;50.564;7.272;2023-03-11T13:37:44;7.30;73.90
831;DHT22;397;50.564;7.272;2023-03-11T13:40:32;7.70;77.60
831;DHT22;397;50.564;7.272;2023-03-11T13:43:07;7.80;75.40
831;DHT22;397;50.564;7.272;2023-03-11T13:45:35;8.00;78.70
831;DHT22;397;50.564;7.272;2023-03-11T13:48:27;8.00;79.80
831;DHT22;397;50.564;7.272;2023-03-11T13:53:58;7.90;78.20
831;DHT22;397;50.564;7.272;2023-03-11T13:56:28;7.80;78.20
831;DHT22;397;50.564;7.272;2023-03-11T14:02:03;8.10;80.20
831;DHT22;397;50.564;7.272;2023-03-11T14:04:33;8.20;81.10
831;DHT22;397;50.564;7.272;2023-03-11T14:07:12;8.30;80.10
831;DHT22;397;50.564;7.272;2023-03-11T14:09:40;7.60;75.50
831;DHT22;397;50.564;7.272;2023-03-11T14:12:07;7.50;78.50
831;DHT22;397;50.564;7.272;2023-03-11T14:14:55;7.60;79.30
831;DHT22;397;50.564;7.272;2023-03-11T14:17:23;7.80;80.10
831;DHT22;397;50.564;7.272;2023-03-11T14:20:11;7.40;77.70
831;DHT22;397;50.564;7.272;2023-03-11T14:22:47;7.40;77.60
831;DHT22;397;50.564;7.272;2023-03-11T14:25:26;7.00;76.80
831;DHT22;397;50.564;7.272;2023-03-11T14:27:57;6.50;77.90
831;DHT22;397;50.564;7.272;2023-03-11T14:30:29;6.50;78.40
831;DHT22;397;50.564;7.272;2023-03-11T14:33:00;6.50;77.50
831;DHT22;397;50.564;7.272;2023-03-11T14:35:29;6.30;76.60
831;DHT22;397;50.564;7.272;2023-03-11T14:37:57;6.30;77.50
831;DHT22;397;50.564;7.272;2023-03-11T14:40:27;6.20;77.00
831;DHT22;397;50.564;7.272;2023-03-11T14:43:00;6.00;77.70
831;DHT22;397;50.564;7.272;2023-03-11T14:45:31;6.20;77.30
831;DHT22;397;50.564;7.272;2023-03-11T14:50:32;6.00;78.10
831;DHT22;397;50.564;7.272;2023-03-11T14:53:25;6.00;80.10
831;DHT22;397;50.564;7.272;2023-03-11T14:55:48;6.00;78.20
831;DHT22;397;50.564;7.272;2023-03-11T15:01:22;5.90;77.60
831;DHT22;397;50.564;7.272;2023-03-11T15:04:12;6.10;77.30
831;DHT22;397;50.564;7.272;2023-03-11T15:06:38;6.20;78.90
831;DHT22;397;50.564;7.272;2023-03-11T15:09:14;6.20;77.10
831;DHT22;397;50.564;7.272;2023-03-11T15:11:45;6.30;80.20
831;DHT22;397;50.564;7.272;2023-03-11T15:16:50;6.60;81.00
831;DHT22;397;50.564;7.272;2023-03-11T15:19:29;6.70;81.40
831;DHT22;397;50.564;7.272;2023-03-11T15:22:05;6.40;81.10
831;DHT22;397;50.564;7.272;2023-03-11T15:24:32;6.20;79.40
831;DHT22;397;50.564;7.272;2023-03-11T15:27:03;6.10;78.60
831;DHT22;397;50.564;7.272;2023-03-11T15:29:32;6.10;77.00
831;DHT22;397;50.564;7.272;2023-03-11T15:32:00;6.30;79.10
831;DHT22;397;50.564;7.272;2023-03-11T15:34:31;6.50;81.50
831;DHT22;397;50.564;7.272;2023-03-11T15:37:01;6.30;77.70
831;DHT22;397;50.564;7.272;2023-03-11T15:47:24;6.20;74.90
831;DHT22;397;50.564;7.272;2023-03-11T15:49:51;6.30;75.90
831;DHT22;397;50.564;7.272;2023-03-11T15:52:19;6.50;77.50
831;DHT22;397;50.564;7.272;2023-03-11T15:54:47;6.40;76.00
831;DHT22;397;50.564;7.272;2023-03-11T15:57:27;6.30;74.40
831;DHT22;397;50.564;7.272;2023-03-11T15:59:53;6.20;73.60
831;DHT22;397;50.564;7.272;2023-03-11T16:02:23;6.40;75.40
831;DHT22;397;50.564;7.272;2023-03-11T16:04:51;6.40;74.90
831;DHT22;397;50.564;7.272;2023-03-11T16:07:19;6.50;75.60
831;DHT22;397;50.564;7.272;2023-03-11T16:09:46;6.40;74.30
831;DHT22;397;50.564;7.272;2023-03-11T16:12:20;6.40;74.80
831;DHT22;397;50.564;7.272;2023-03-11T16:14:49;6.30;74.90
831;DHT22;397;50.564;7.272;2023-03-11T16:17:16;6.40;76.60
831;DHT22;397;50.564;7.272;2023-03-11T16:19:45;6.50;78.80
831;DHT22;397;50.564;7.272;2023-03-11T16:22:23;6.60;78.50
831;DHT22;397;50.564;7.272;2023-03-11T16:24:48;6.60;77.70
831;DHT22;397;50.564;7.272;2023-03-11T16:27:17;6.50;78.00
831;DHT22;397;50.564;7.272;2023-03-11T16:29:45;6.50;78.60
831;DHT22;397;50.564;7.272;2023-03-11T16:32:13;6.30;77.70
831;DHT22;397;50.564;7.272;2023-03-11T16:34:40;6.40;77.80
831;DHT22;397;50.564;7.272;2023-03-11T16:37:13;6.40;75.70
831;DHT22;397;50.564;7.272;2023-03-11T16:39:39;6.30;75.70
831;DHT22;397;50.564;7.272;2023-03-11T16:42:07;6.00;75.80
831;DHT22;397;50.564;7.272;2023-03-11T16:44:35;5.80;75.00
831;DHT22;397;50.564;7.272;2023-03-11T16:47:02;5.90;77.10
831;DHT22;397;50.564;7.272;2023-03-11T16:49:30;6.00;77.90
831;DHT22;397;50.564;7.272;2023-03-11T16:51:57;5.90;76.50
831;DHT22;397;50.564;7.272;2023-03-11T16:54:25;5.80;75.90
831;DHT22;397;50.564;7.272;2023-03-11T16:56:53;5.70;74.60
831;DHT22;397;50.564;7.272;2023-03-11T16:59:21;5.70;77.40
831;DHT22;397;50.564;7.272;2023-03-11T17:01:48;5.80;79.40
831;DHT22;397;50.564;7.272;2023-03-11T17:04:16;5.70;76.70
831;DHT22;397;50.564;7.272;2023-03-11T17:06:43;5.70;79.10
831;DHT22;397;50.564;7.272;2023-03-11T17:09:11;5.60;78.60
831;DHT22;397;50.564;7.272;2023-03-11T17:11:39;5.60;80.40
831;DHT22;397;50.564;7.272;2023-03-11T17:14:06;5.60;81.30
831;DHT22;397;50.564;7.272;2023-03-11T17:16:34;5.50;81.00
831;DHT22;397;50.564;7.272;2023-03-11T17:19:01;5.40;80.70
831;DHT22;397;50.564;7.272;2023-03-11T17:21:29;5.40;82.20
831;DHT22;397;50.564;7.272;2023-03-11T17:23:56;5.30;82.00
831;DHT22;397;50.564;7.272;2023-03-11T17:26:24;5.30;82.80
831;DHT22;397;50.564;7.272;2023-03-11T17:28:56;5.30;85.60
831;DHT22;397;50.564;7.272;2023-03-11T17:31:24;5.20;86.90
831;DHT22;397;50.564;7.272;2023-03-11T17:33:51;5.10;88.30
831;DHT22;397;50.564;7.272;2023-03-11T17:36:19;5.00;87.50
831;DHT22;397;50.564;7.272;2023-03-11T17:38:49;5.00;89.30
831;DHT22;397;50.564;7.272;2023-03-11T17:41:16;4.90;88.30
831;DHT22;397;50.564;7.272;2023-03-11T17:43:44;4.80;87.70
831;DHT22;397;50.564;7.272;2023-03-11T17:46:14;4.70;88.20
831;DHT22;397;50.564;7.272;2023-03-11T17:48:44;4.60;94.20
831;DHT22;397;50.564;7.272;2023-03-11T17:51:14;4.60;95.70
831;DHT22;397;50.564;7.272;2023-03-11T17:53:43;4.50;97.20
831;DHT22;397;50.564;7.272;2023-03-11T17:56:12;4.50;98.60
831;DHT22;397;50.564;7.272;2023-03-11T17:58:40;4.40;99.40
831;DHT22;397;50.564;7.272;2023-03-11T18:01:11;4.30;99.90
831;DHT22;397;50.564;7.272;2023-03-11T18:03:38;4.20;99.90
831;DHT22;397;50.564;7.272;2023-03-11T18:06:06;4.00;99.90
831;DHT22;397;50.564;7.272;2023-03-11T18:08:34;3.80;99.90
831;DHT22;397;50.564;7.272;2023-03-11T18:11:07;3.80;99.90
831;DHT22;397;50.564;7.272;2023-03-11T18:13:36;3.70;99.90
831;DHT22;397;50.564;7.272;2023-03-11T18:16:27;3.50;99.90
831;DHT22;397;50.564;7.272;2023-03-11T18:18:57;3.50;99.90
831;DHT22;397;50.564;7.272;2023-03-11T18:21:27;3.50;99.90
831;DHT22;397;50.564;7.272;2023-03-11T18:23:57;3.50;99.90
831;DHT22;397;50.564;7.272;2023-03-11T18:26:26;3.50;99.90
831;DHT22;397;50.564;7.272;2023-03-11T18:28:55;3.30;99.90
831;DHT22;397;50.564;7.272;2023-03-11T18:31:23;3.10;99.90
831;DHT22;397;50.564;7.272;2023-03-11T18:33:53;3.30;99.90
831;DHT22;397;50.564;7.272;2023-03-11T18:36:27;3.00;99.90
831;DHT22;397;50.564;7.272;2023-03-11T18:38:56;3.20;99.90
831;DHT22;397;50.564;7.272;2023-03-11T18:41:25;3.10;99.90
831;DHT22;397;50.564;7.272;2023-03-11T18:43:54;3.20;99.90
831;DHT22;397;50.564;7.272;2023-03-11T18:46:25;3.30;99.90